Terminal Aerodrome Forecast
Issued by NWS La Crosse, WI

Home | Current Version | Previous Version | Text Only | Print | Product List | Glossary On
Versions: 1 2 3 4 5 6 7 8 9 10 11 12
000
FTUS43 KARX 201120
TAFLSE
TAF
KLSE 201120Z 2012/2112 15009KT P6SM SCT050 OVC150 WS020/18035KT
     FM201700 16013KT 6SM -SHRA BR OVC050
     FM201900 16013G21KT 3SM SHRA BR OVC014
     FM202300 18010KT 3SM SHRA BR OVC008
     FM210100 21008KT 5SM -SHRA BR OVC012
     FM210400 27005KT P6SM BKN035
     FM210900 30005KT P6SM SCT100=

USA.gov is the U.S. government's official web portal to all federal, state and local government web resources and services.